createdAt,value
2023-05-25T00:09:43.915Z,35.81
2023-05-25T00:20:20.654Z,36.26
2023-05-25T00:30:20.382Z,36.52
2023-05-25T00:36:07.385Z,36.64
2023-05-25T00:42:02.214Z,36.73
2023-05-25T00:53:08.822Z,37.03
2023-05-25T00:59:00.189Z,37.12
2023-05-25T01:05:17.600Z,37.14
2023-05-25T01:11:15.250Z,37.24
2023-05-25T01:17:01.275Z,37.39
2023-05-25T01:23:31.847Z,37.45
2023-05-25T01:35:21.694Z,37.71
2023-05-25T01:41:19.085Z,37.76
2023-05-25T01:52:57.648Z,37.83
2023-05-25T01:59:28.875Z,37.96
2023-05-25T02:11:14.070Z,38.14
2023-05-25T02:17:15.765Z,38.25
2023-05-25T02:30:10.056Z,38.48
2023-05-25T02:35:57.550Z,38.48
2023-05-25T02:47:38.828Z,38.80
2023-05-25T02:54:09.646Z,38.93
2023-05-25T03:00:01.459Z,39.07
2023-05-25T03:06:51.089Z,39.14
2023-05-25T03:12:49.733Z,39.38
2023-05-25T03:18:45.229Z,39.72
2023-05-25T03:24:32.842Z,39.75
2023-05-25T03:31:30.702Z,39.91
2023-05-25T03:40:28.267Z,39.94
2023-05-25T03:46:15.460Z,39.98
2023-05-25T03:52:11.244Z,40.10
2023-05-25T03:59:17.388Z,40.16
2023-05-25T04:05:56.664Z,40.24
2023-05-25T04:11:44.472Z,40.29
2023-05-25T04:17:40.334Z,40.38
2023-05-25T04:23:22.778Z,40.34
2023-05-25T04:34:37.421Z,40.31
2023-05-25T04:52:06.573Z,40.22
2023-05-25T04:57:53.849Z,40.22
2023-05-25T05:03:42.418Z,40.23
2023-05-25T05:09:31.140Z,40.22
2023-05-25T05:15:40.978Z,40.15
2023-05-25T05:20:44.607Z,40.17
2023-05-25T05:27:11.101Z,40.34
2023-05-25T05:33:12.046Z,40.35
2023-05-25T05:44:16.065Z,40.23
2023-05-25T05:50:03.626Z,40.21
2023-05-25T06:01:55.842Z,40.29
2023-05-25T06:08:36.274Z,40.34
2023-05-25T06:14:40.754Z,40.34
2023-05-25T06:20:35.810Z,40.28
2023-05-25T06:38:13.400Z,39.87
2023-05-25T06:44:00.635Z,42.07
2023-05-25T06:49:23.102Z,40.94
2023-05-25T06:54:45.481Z,40.59
2023-05-25T07:04:03.488Z,40.21
2023-05-25T07:05:07.248Z,40.17
2023-05-25T07:10:15.494Z,40.52
2023-05-25T07:15:58.744Z,40.50
2023-05-25T07:21:11.472Z,40.41
2023-05-25T07:26:31.898Z,40.53
2023-05-25T07:31:39.478Z,40.31
2023-05-25T07:36:48.718Z,40.22
2023-05-25T07:42:05.463Z,40.27
2023-05-25T07:47:09.442Z,40.33
2023-05-25T07:52:23.651Z,40.44
2023-05-25T07:57:29.910Z,40.23
2023-05-25T08:02:39.987Z,40.12
2023-05-25T08:13:14.262Z,40.15
2023-05-25T08:19:14.858Z,40.21
2023-05-25T08:24:57.345Z,40.20
2023-05-25T08:30:42.940Z,40.33
2023-05-25T08:36:28.426Z,40.30
2023-05-25T08:42:15.837Z,40.02
2023-05-25T08:47:58.468Z,40.25
2023-05-25T09:03:42.786Z,40.85
2023-05-25T09:08:46.839Z,41.27
2023-05-25T09:13:55.005Z,41.08
2023-05-25T09:19:10.994Z,41.55
2023-05-25T09:24:25.783Z,41.70
2023-05-25T09:29:33.512Z,41.62
2023-05-25T09:29:41.859Z,41.09
2023-05-25T09:35:18.049Z,42.78
2023-05-25T09:40:36.579Z,42.40
2023-05-25T09:45:49.684Z,42.17
2023-05-25T09:51:58.265Z,42.40
2023-05-25T09:57:09.175Z,42.52
2023-05-25T10:01:41.248Z,42.93
2023-05-25T10:07:24.533Z,42.31
2023-05-25T10:12:32.318Z,42.20
2023-05-25T10:18:19.511Z,42.68
2023-05-25T10:23:31.841Z,42.72
2023-05-25T10:28:39.826Z,43.35
2023-05-25T10:34:27.190Z,43.73
2023-05-25T10:40:09.651Z,42.81
2023-05-25T10:45:26.446Z,43.47
2023-05-25T10:50:49.658Z,43.02
2023-05-25T10:56:06.672Z,42.48
2023-05-25T11:01:18.764Z,43.37
2023-05-25T11:06:42.232Z,42.71
2023-05-25T11:12:24.732Z,42.55
2023-05-25T11:17:40.242Z,43.38
2023-05-25T11:22:50.381Z,42.94
2023-05-25T11:27:56.146Z,43.34
2023-05-25T11:33:07.487Z,42.86
2023-05-25T11:45:07.338Z,43.60
2023-05-25T11:54:35.584Z,43.99
2023-05-25T12:00:23.894Z,43.75
2023-05-25T12:06:12.664Z,44.46
2023-05-25T12:11:55.117Z,44.10
2023-05-25T12:17:40.056Z,43.88
2023-05-25T12:28:17.793Z,43.75
2023-05-25T12:33:56.883Z,44.18
2023-05-25T12:40:00.945Z,44.23
2023-05-25T12:44:47.069Z,43.58
2023-05-25T12:50:03.149Z,43.39
2023-05-25T12:55:44.020Z,43.05
2023-05-25T13:01:36.072Z,43.00
2023-05-25T13:06:44.720Z,43.20
2023-05-25T13:18:00.442Z,43.31
2023-05-25T13:23:37.205Z,43.73
2023-05-25T13:29:19.496Z,43.12
2023-05-25T13:34:27.281Z,43.05
2023-05-25T13:39:46.061Z,43.12
2023-05-25T13:45:43.189Z,43.38
2023-05-25T13:51:28.854Z,43.44
2023-05-25T13:57:18.750Z,43.69
2023-05-25T14:02:31.642Z,43.67
2023-05-25T14:08:29.133Z,43.12
2023-05-25T14:13:33.642Z,43.14
2023-05-25T14:18:43.741Z,43.29
2023-05-25T14:24:00.373Z,43.58
2023-05-25T14:29:16.318Z,43.58
2023-05-25T14:34:30.330Z,43.63
2023-05-25T14:40:44.406Z,43.49
2023-05-25T14:46:15.615Z,43.39
2023-05-25T14:50:48.299Z,43.34
2023-05-25T14:57:13.080Z,43.38
2023-05-25T15:02:57.494Z,43.61
2023-05-25T15:07:56.529Z,43.36
2023-05-25T15:13:40.531Z,43.48
2023-05-25T15:19:28.921Z,43.60
2023-05-25T15:24:51.277Z,43.45
2023-05-25T15:30:21.905Z,43.28
2023-05-25T15:35:39.236Z,43.44
2023-05-25T15:40:46.618Z,43.62
2023-05-25T15:45:58.084Z,43.51
2023-05-25T15:51:43.008Z,44.16
2023-05-25T15:57:28.859Z,44.19
2023-05-25T16:03:20.519Z,43.89
2023-05-25T16:08:32.594Z,44.03
2023-05-25T16:14:13.586Z,44.22
2023-05-25T16:19:22.304Z,44.02
2023-05-25T16:24:37.146Z,44.29
2023-05-25T16:29:57.187Z,44.12
2023-05-25T16:35:03.294Z,44.77
2023-05-25T16:42:46.901Z,44.69
2023-05-25T16:46:06.904Z,44.61
2023-05-25T16:50:36.173Z,44.39
2023-05-25T16:55:50.873Z,44.56
2023-05-25T17:01:02.408Z,44.87
2023-05-25T17:06:31.266Z,44.80
2023-05-25T17:11:46.083Z,44.76
2023-05-25T17:17:13.753Z,45.09
2023-05-25T17:22:58.443Z,44.99
2023-05-25T17:28:20.046Z,44.89
2023-05-25T17:34:04.560Z,44.41
2023-05-25T17:39:21.244Z,44.29
2023-05-25T17:44:29.011Z,44.30
2023-05-25T17:49:41.743Z,44.15
2023-05-25T17:54:57.868Z,44.17
2023-05-25T18:00:24.460Z,44.37
2023-05-25T18:06:52.136Z,44.19
2023-05-25T18:11:31.671Z,44.17
2023-05-25T18:16:45.037Z,44.16
2023-05-25T18:21:56.882Z,44.02
2023-05-25T18:32:13.567Z,43.96
2023-05-25T18:33:13.811Z,43.87
2023-05-25T18:38:53.781Z,43.71
2023-05-25T18:49:50.772Z,43.60
2023-05-25T18:55:07.850Z,43.56
2023-05-25T19:00:31.203Z,43.53
2023-05-25T19:05:47.578Z,43.53
2023-05-25T19:12:14.515Z,43.50
2023-05-25T19:16:51.236Z,43.55
2023-05-25T19:22:47.017Z,43.83
2023-05-25T19:28:25.762Z,43.99
2023-05-25T19:35:15.974Z,44.28
2023-05-25T19:40:32.754Z,44.29
2023-05-25T19:46:33.527Z,44.14
2023-05-25T19:51:31.377Z,44.22
2023-05-25T19:56:44.523Z,44.25
2023-05-25T20:02:24.892Z,44.22
2023-05-25T20:07:35.594Z,44.41
2023-05-25T20:14:38.815Z,44.53
2023-05-25T20:18:14.141Z,44.62
2023-05-25T20:23:31.162Z,44.74
2023-05-25T20:29:04.637Z,44.99
2023-05-25T20:34:34.736Z,44.86
2023-05-25T20:39:56.860Z,44.92
2023-05-25T20:45:18.451Z,44.95
2023-05-25T20:50:44.337Z,45.18
2023-05-25T21:01:39.653Z,45.11
2023-05-25T21:01:57.406Z,45.18
2023-05-25T21:06:32.777Z,45.20
2023-05-25T21:12:18.557Z,45.18
2023-05-25T21:19:23.434Z,45.29
2023-05-25T21:22:42.841Z,45.42
2023-05-25T21:27:56.888Z,45.56
2023-05-25T21:33:05.305Z,45.58
2023-05-25T21:38:15.916Z,45.68
2023-05-25T21:43:56.363Z,45.59
2023-05-25T21:49:14.901Z,45.59
2023-05-25T21:54:20.846Z,45.54
2023-05-25T21:59:50.972Z,45.52
2023-05-25T22:05:31.436Z,45.52
2023-05-25T22:10:56.484Z,45.40
2023-05-25T22:18:06.395Z,45.43
2023-05-25T22:22:05.421Z,45.40
2023-05-25T22:26:54.129Z,45.38
2023-05-25T22:43:11.197Z,45.62
2023-05-25T22:49:22.214Z,45.57
2023-05-25T22:55:17.304Z,45.63
2023-05-25T23:00:34.682Z,45.51
2023-05-25T23:05:58.860Z,45.31
2023-05-25T23:11:27.877Z,45.29
2023-05-25T23:17:08.488Z,45.18
2023-05-25T23:23:45.399Z,45.06
2023-05-25T23:28:28.101Z,45.26
2023-05-25T23:34:56.003Z,45.15
2023-05-25T23:40:56.203Z,45.05
2023-05-25T23:46:45.906Z,45.06
2023-05-25T23:52:29.811Z,44.94
